sensor_id;sensor_type;location;lat;lon;timestamp;P1;durP1;ratioP1;P2;durP2;ratioP2
19024;SDS011;9645;51.448;6.260;2023-08-30T00:01:04;30.83;;;13.50;;
19024;SDS011;9645;51.448;6.260;2023-08-30T00:03:32;22.43;;;12.13;;
19024;SDS011;9645;51.448;6.260;2023-08-30T00:06:02;22.83;;;12.20;;
19024;SDS011;9645;51.448;6.260;2023-08-30T00:08:30;29.20;;;13.70;;
19024;SDS011;9645;51.448;6.260;2023-08-30T00:10:57;24.60;;;13.33;;
19024;SDS011;9645;51.448;6.260;2023-08-30T00:13:26;23.80;;;12.63;;
19024;SDS011;9645;51.448;6.260;2023-08-30T00:16:01;24.53;;;13.67;;
19024;SDS011;9645;51.448;6.260;2023-08-30T00:18:29;22.50;;;13.30;;
19024;SDS011;9645;51.448;6.260;2023-08-30T00:20:56;24.07;;;13.30;;
19024;SDS011;9645;51.448;6.260;2023-08-30T00:23:23;29.70;;;12.97;;
19024;SDS011;9645;51.448;6.260;2023-08-30T00:25:50;24.97;;;13.80;;
19024;SDS011;9645;51.448;6.260;2023-08-30T00:28:17;24.40;;;13.63;;
19024;SDS011;9645;51.448;6.260;2023-08-30T00:30:46;24.77;;;12.77;;
19024;SDS011;9645;51.448;6.260;2023-08-30T00:33:12;25.30;;;13.47;;
19024;SDS011;9645;51.448;6.260;2023-08-30T00:35:39;25.40;;;13.57;;
19024;SDS011;9645;51.448;6.260;2023-08-30T00:38:06;27.70;;;14.23;;
19024;SDS011;9645;51.448;6.260;2023-08-30T00:40:37;22.60;;;12.40;;
19024;SDS011;9645;51.448;6.260;2023-08-30T00:43:04;24.20;;;13.43;;
19024;SDS011;9645;51.448;6.260;2023-08-30T00:45:31;26.27;;;13.63;;
19024;SDS011;9645;51.448;6.260;2023-08-30T00:48:00;20.13;;;11.97;;
19024;SDS011;9645;51.448;6.260;2023-08-30T00:50:27;27.20;;;13.67;;
19024;SDS011;9645;51.448;6.260;2023-08-30T00:52:54;26.70;;;14.00;;
19024;SDS011;9645;51.448;6.260;2023-08-30T00:55:21;26.70;;;13.97;;
19024;SDS011;9645;51.448;6.260;2023-08-30T00:57:48;28.00;;;12.50;;
19024;SDS011;9645;51.448;6.260;2023-08-30T01:00:15;29.90;;;14.30;;
19024;SDS011;9645;51.448;6.260;2023-08-30T01:02:43;21.60;;;12.27;;
19024;SDS011;9645;51.448;6.260;2023-08-30T01:05:11;29.30;;;14.27;;
19024;SDS011;9645;51.448;6.260;2023-08-30T01:07:39;24.50;;;13.97;;
19024;SDS011;9645;51.448;6.260;2023-08-30T01:10:07;35.20;;;14.80;;
19024;SDS011;9645;51.448;6.260;2023-08-30T01:12:37;28.90;;;13.93;;
19024;SDS011;9645;51.448;6.260;2023-08-30T01:15:10;31.93;;;13.07;;
19024;SDS011;9645;51.448;6.260;2023-08-30T01:17:42;24.40;;;12.83;;
19024;SDS011;9645;51.448;6.260;2023-08-30T01:20:10;25.77;;;13.30;;
19024;SDS011;9645;51.448;6.260;2023-08-30T01:22:43;22.43;;;13.13;;
19024;SDS011;9645;51.448;6.260;2023-08-30T01:25:23;24.73;;;13.60;;
19024;SDS011;9645;51.448;6.260;2023-08-30T01:28:00;19.63;;;11.60;;
19024;SDS011;9645;51.448;6.260;2023-08-30T01:30:30;20.73;;;11.33;;
19024;SDS011;9645;51.448;6.260;2023-08-30T01:32:59;21.27;;;11.40;;
19024;SDS011;9645;51.448;6.260;2023-08-30T01:35:28;21.43;;;12.40;;
19024;SDS011;9645;51.448;6.260;2023-08-30T01:37:58;20.37;;;12.17;;
19024;SDS011;9645;51.448;6.260;2023-08-30T01:40:26;22.47;;;12.10;;
19024;SDS011;9645;51.448;6.260;2023-08-30T01:42:55;18.77;;;11.10;;
19024;SDS011;9645;51.448;6.260;2023-08-30T01:45:24;21.83;;;11.90;;
19024;SDS011;9645;51.448;6.260;2023-08-30T01:47:53;25.00;;;11.87;;
19024;SDS011;9645;51.448;6.260;2023-08-30T01:50:21;19.50;;;11.53;;
19024;SDS011;9645;51.448;6.260;2023-08-30T01:52:48;21.90;;;11.10;;
19024;SDS011;9645;51.448;6.260;2023-08-30T01:55:17;26.23;;;11.10;;
19024;SDS011;9645;51.448;6.260;2023-08-30T01:57:46;22.53;;;10.90;;
19024;SDS011;9645;51.448;6.260;2023-08-30T02:00:13;24.03;;;10.70;;
19024;SDS011;9645;51.448;6.260;2023-08-30T02:02:43;17.10;;;9.90;;
19024;SDS011;9645;51.448;6.260;2023-08-30T02:05:10;19.13;;;10.40;;
19024;SDS011;9645;51.448;6.260;2023-08-30T02:07:40;18.83;;;9.93;;
19024;SDS011;9645;51.448;6.260;2023-08-30T02:10:19;20.33;;;10.93;;
19024;SDS011;9645;51.448;6.260;2023-08-30T02:12:49;24.73;;;11.07;;
19024;SDS011;9645;51.448;6.260;2023-08-30T02:15:20;23.73;;;13.23;;
19024;SDS011;9645;51.448;6.260;2023-08-30T02:17:52;20.27;;;10.43;;
19024;SDS011;9645;51.448;6.260;2023-08-30T02:20:19;20.40;;;10.63;;
19024;SDS011;9645;51.448;6.260;2023-08-30T02:22:46;21.07;;;10.77;;
19024;SDS011;9645;51.448;6.260;2023-08-30T02:25:13;20.80;;;11.40;;
19024;SDS011;9645;51.448;6.260;2023-08-30T02:27:40;24.50;;;11.33;;
19024;SDS011;9645;51.448;6.260;2023-08-30T02:30:07;19.13;;;10.40;;
19024;SDS011;9645;51.448;6.260;2023-08-30T02:32:34;17.20;;;10.33;;
19024;SDS011;9645;51.448;6.260;2023-08-30T02:35:02;23.17;;;11.07;;
19024;SDS011;9645;51.448;6.260;2023-08-30T02:37:30;19.07;;;10.87;;
19024;SDS011;9645;51.448;6.260;2023-08-30T02:39:55;21.17;;;11.40;;
19024;SDS011;9645;51.448;6.260;2023-08-30T02:42:22;19.67;;;11.10;;
19024;SDS011;9645;51.448;6.260;2023-08-30T02:44:51;21.30;;;11.40;;
19024;SDS011;9645;51.448;6.260;2023-08-30T02:47:18;22.93;;;11.23;;
19024;SDS011;9645;51.448;6.260;2023-08-30T02:49:45;28.53;;;11.57;;
19024;SDS011;9645;51.448;6.260;2023-08-30T02:52:13;19.37;;;11.57;;
19024;SDS011;9645;51.448;6.260;2023-08-30T02:54:40;19.97;;;12.57;;
19024;SDS011;9645;51.448;6.260;2023-08-30T02:57:07;23.27;;;11.70;;
19024;SDS011;9645;51.448;6.260;2023-08-30T02:59:34;21.77;;;11.60;;
19024;SDS011;9645;51.448;6.260;2023-08-30T03:02:01;23.97;;;11.00;;
19024;SDS011;9645;51.448;6.260;2023-08-30T03:04:29;21.23;;;11.93;;
19024;SDS011;9645;51.448;6.260;2023-08-30T03:06:55;21.17;;;12.60;;
19024;SDS011;9645;51.448;6.260;2023-08-30T03:09:24;20.27;;;12.70;;
19024;SDS011;9645;51.448;6.260;2023-08-30T03:11:51;24.70;;;13.17;;
19024;SDS011;9645;51.448;6.260;2023-08-30T03:14:18;22.33;;;12.43;;
19024;SDS011;9645;51.448;6.260;2023-08-30T03:16:44;25.43;;;12.63;;
19024;SDS011;9645;51.448;6.260;2023-08-30T03:19:12;24.90;;;12.57;;
19024;SDS011;9645;51.448;6.260;2023-08-30T03:21:42;25.83;;;11.17;;
19024;SDS011;9645;51.448;6.260;2023-08-30T03:24:09;21.90;;;11.97;;
19024;SDS011;9645;51.448;6.260;2023-08-30T03:26:37;19.37;;;11.53;;
19024;SDS011;9645;51.448;6.260;2023-08-30T03:29:05;23.80;;;12.77;;
19024;SDS011;9645;51.448;6.260;2023-08-30T03:31:32;29.43;;;13.63;;
19024;SDS011;9645;51.448;6.260;2023-08-30T03:33:59;25.27;;;13.03;;
19024;SDS011;9645;51.448;6.260;2023-08-30T03:36:26;21.10;;;12.17;;
19024;SDS011;9645;51.448;6.260;2023-08-30T03:38:53;27.63;;;13.67;;
19024;SDS011;9645;51.448;6.260;2023-08-30T03:41:20;24.70;;;13.60;;
19024;SDS011;9645;51.448;6.260;2023-08-30T03:43:49;28.03;;;12.73;;
19024;SDS011;9645;51.448;6.260;2023-08-30T03:46:15;27.73;;;12.97;;
19024;SDS011;9645;51.448;6.260;2023-08-30T03:48:42;27.60;;;13.80;;
19024;SDS011;9645;51.448;6.260;2023-08-30T03:51:09;29.13;;;13.80;;
19024;SDS011;9645;51.448;6.260;2023-08-30T03:53:36;29.20;;;14.13;;
19024;SDS011;9645;51.448;6.260;2023-08-30T03:56:03;28.77;;;14.30;;
19024;SDS011;9645;51.448;6.260;2023-08-30T03:58:31;28.60;;;14.10;;
19024;SDS011;9645;51.448;6.260;2023-08-30T04:00:59;29.67;;;14.90;;
19024;SDS011;9645;51.448;6.260;2023-08-30T04:03:26;27.07;;;13.90;;
19024;SDS011;9645;51.448;6.260;2023-08-30T04:05:54;26.13;;;13.60;;
19024;SDS011;9645;51.448;6.260;2023-08-30T04:08:22;29.77;;;14.50;;
19024;SDS011;9645;51.448;6.260;2023-08-30T04:10:51;27.40;;;14.60;;
19024;SDS011;9645;51.448;6.260;2023-08-30T04:13:19;26.97;;;15.47;;
19024;SDS011;9645;51.448;6.260;2023-08-30T04:15:46;37.17;;;15.67;;
19024;SDS011;9645;51.448;6.260;2023-08-30T04:18:15;30.97;;;14.97;;
19024;SDS011;9645;51.448;6.260;2023-08-30T04:20:43;29.30;;;15.30;;
19024;SDS011;9645;51.448;6.260;2023-08-30T04:23:11;39.70;;;17.90;;
19024;SDS011;9645;51.448;6.260;2023-08-30T04:25:38;36.53;;;16.03;;
19024;SDS011;9645;51.448;6.260;2023-08-30T04:28:05;27.70;;;14.57;;
19024;SDS011;9645;51.448;6.260;2023-08-30T04:30:32;34.70;;;16.77;;
19024;SDS011;9645;51.448;6.260;2023-08-30T04:33:02;38.93;;;19.57;;
19024;SDS011;9645;51.448;6.260;2023-08-30T04:35:31;42.07;;;18.60;;
19024;SDS011;9645;51.448;6.260;2023-08-30T04:37:59;40.90;;;18.57;;
19024;SDS011;9645;51.448;6.260;2023-08-30T04:40:26;39.20;;;18.30;;
19024;SDS011;9645;51.448;6.260;2023-08-30T04:42:53;40.77;;;19.40;;
19024;SDS011;9645;51.448;6.260;2023-08-30T04:45:20;51.93;;;21.20;;
19024;SDS011;9645;51.448;6.260;2023-08-30T04:47:47;34.77;;;18.33;;
19024;SDS011;9645;51.448;6.260;2023-08-30T04:50:14;36.77;;;18.73;;
19024;SDS011;9645;51.448;6.260;2023-08-30T04:52:43;38.10;;;19.43;;
19024;SDS011;9645;51.448;6.260;2023-08-30T04:55:10;35.17;;;18.60;;
19024;SDS011;9645;51.448;6.260;2023-08-30T04:57:37;40.07;;;18.77;;
19024;SDS011;9645;51.448;6.260;2023-08-30T05:00:04;34.93;;;18.90;;
19024;SDS011;9645;51.448;6.260;2023-08-30T05:02:32;38.40;;;19.10;;
19024;SDS011;9645;51.448;6.260;2023-08-30T05:04:59;36.80;;;18.43;;
19024;SDS011;9645;51.448;6.260;2023-08-30T05:07:27;37.60;;;18.37;;
19024;SDS011;9645;51.448;6.260;2023-08-30T05:09:55;36.70;;;18.73;;
19024;SDS011;9645;51.448;6.260;2023-08-30T05:12:22;45.27;;;18.37;;
19024;SDS011;9645;51.448;6.260;2023-08-30T05:14:49;39.10;;;16.80;;
19024;SDS011;9645;51.448;6.260;2023-08-30T05:17:16;43.03;;;18.67;;
19024;SDS011;9645;51.448;6.260;2023-08-30T05:19:46;37.20;;;18.30;;
19024;SDS011;9645;51.448;6.260;2023-08-30T05:22:13;37.97;;;17.83;;
19024;SDS011;9645;51.448;6.260;2023-08-30T05:24:41;37.13;;;17.17;;
19024;SDS011;9645;51.448;6.260;2023-08-30T05:27:09;34.97;;;16.77;;
19024;SDS011;9645;51.448;6.260;2023-08-30T05:29:38;33.03;;;16.90;;
19024;SDS011;9645;51.448;6.260;2023-08-30T05:32:05;32.57;;;17.27;;
19024;SDS011;9645;51.448;6.260;2023-08-30T05:34:32;33.60;;;15.20;;
19024;SDS011;9645;51.448;6.260;2023-08-30T05:37:00;30.90;;;15.73;;
19024;SDS011;9645;51.448;6.260;2023-08-30T05:39:27;29.20;;;14.30;;
19024;SDS011;9645;51.448;6.260;2023-08-30T05:41:54;35.07;;;17.53;;
19024;SDS011;9645;51.448;6.260;2023-08-30T05:44:23;32.37;;;15.27;;
19024;SDS011;9645;51.448;6.260;2023-08-30T05:46:49;32.90;;;15.40;;
19024;SDS011;9645;51.448;6.260;2023-08-30T05:49:16;29.40;;;15.80;;
19024;SDS011;9645;51.448;6.260;2023-08-30T05:51:43;26.67;;;13.90;;
19024;SDS011;9645;51.448;6.260;2023-08-30T05:54:12;25.13;;;13.97;;
19024;SDS011;9645;51.448;6.260;2023-08-30T05:56:39;29.77;;;16.17;;
19024;SDS011;9645;51.448;6.260;2023-08-30T05:59:07;35.60;;;16.30;;
19024;SDS011;9645;51.448;6.260;2023-08-30T06:01:35;33.80;;;16.13;;
19024;SDS011;9645;51.448;6.260;2023-08-30T06:04:03;29.30;;;15.47;;
19024;SDS011;9645;51.448;6.260;2023-08-30T06:06:30;35.23;;;17.23;;
19024;SDS011;9645;51.448;6.260;2023-08-30T06:08:57;33.43;;;17.03;;
19024;SDS011;9645;51.448;6.260;2023-08-30T06:11:25;33.90;;;18.00;;
19024;SDS011;9645;51.448;6.260;2023-08-30T06:13:52;35.13;;;17.47;;
19024;SDS011;9645;51.448;6.260;2023-08-30T06:16:20;34.33;;;16.40;;
19024;SDS011;9645;51.448;6.260;2023-08-30T06:18:48;30.17;;;17.03;;
19024;SDS011;9645;51.448;6.260;2023-08-30T06:21:15;35.07;;;17.67;;
19024;SDS011;9645;51.448;6.260;2023-08-30T06:23:42;30.53;;;16.57;;
19024;SDS011;9645;51.448;6.260;2023-08-30T06:26:09;33.90;;;15.70;;
19024;SDS011;9645;51.448;6.260;2023-08-30T06:28:36;29.70;;;17.40;;
19024;SDS011;9645;51.448;6.260;2023-08-30T06:31:03;31.87;;;16.20;;
19024;SDS011;9645;51.448;6.260;2023-08-30T06:33:30;29.00;;;15.60;;
19024;SDS011;9645;51.448;6.260;2023-08-30T06:35:58;29.60;;;15.50;;
19024;SDS011;9645;51.448;6.260;2023-08-30T06:38:25;30.23;;;16.37;;
19024;SDS011;9645;51.448;6.260;2023-08-30T06:40:52;28.50;;;15.17;;
19024;SDS011;9645;51.448;6.260;2023-08-30T06:43:19;28.00;;;14.90;;
19024;SDS011;9645;51.448;6.260;2023-08-30T06:45:46;28.30;;;14.80;;
19024;SDS011;9645;51.448;6.260;2023-08-30T06:48:13;25.23;;;14.40;;
19024;SDS011;9645;51.448;6.260;2023-08-30T06:50:40;27.33;;;15.37;;
19024;SDS011;9645;51.448;6.260;2023-08-30T06:53:09;28.80;;;14.70;;
19024;SDS011;9645;51.448;6.260;2023-08-30T06:55:36;27.23;;;13.40;;
19024;SDS011;9645;51.448;6.260;2023-08-30T06:58:03;27.60;;;12.70;;
19024;SDS011;9645;51.448;6.260;2023-08-30T07:00:30;23.77;;;13.27;;
19024;SDS011;9645;51.448;6.260;2023-08-30T07:02:57;22.53;;;13.10;;
19024;SDS011;9645;51.448;6.260;2023-08-30T07:05:25;22.40;;;13.50;;
19024;SDS011;9645;51.448;6.260;2023-08-30T07:07:52;22.63;;;12.80;;
19024;SDS011;9645;51.448;6.260;2023-08-30T07:10:20;23.37;;;12.53;;
19024;SDS011;9645;51.448;6.260;2023-08-30T07:12:48;22.47;;;12.80;;
19024;SDS011;9645;51.448;6.260;2023-08-30T07:15:15;30.60;;;13.47;;
19024;SDS011;9645;51.448;6.260;2023-08-30T07:17:43;22.90;;;12.77;;
19024;SDS011;9645;51.448;6.260;2023-08-30T07:20:10;29.80;;;12.43;;
19024;SDS011;9645;51.448;6.260;2023-08-30T07:22:37;20.77;;;12.40;;
19024;SDS011;9645;51.448;6.260;2023-08-30T07:25:04;23.87;;;12.80;;
19024;SDS011;9645;51.448;6.260;2023-08-30T07:27:35;20.43;;;11.70;;
19024;SDS011;9645;51.448;6.260;2023-08-30T07:30:02;24.30;;;11.87;;
19024;SDS011;9645;51.448;6.260;2023-08-30T07:32:29;29.40;;;11.47;;
19024;SDS011;9645;51.448;6.260;2023-08-30T07:34:56;23.77;;;11.83;;
19024;SDS011;9645;51.448;6.260;2023-08-30T07:37:23;23.20;;;13.50;;
19024;SDS011;9645;51.448;6.260;2023-08-30T07:39:50;17.83;;;11.80;;
19024;SDS011;9645;51.448;6.260;2023-08-30T07:42:17;20.70;;;12.30;;
19024;SDS011;9645;51.448;6.260;2023-08-30T07:44:46;23.53;;;11.37;;
19024;SDS011;9645;51.448;6.260;2023-08-30T07:47:13;18.73;;;11.77;;
19024;SDS011;9645;51.448;6.260;2023-08-30T07:49:40;26.10;;;12.10;;
19024;SDS011;9645;51.448;6.260;2023-08-30T07:52:07;17.67;;;9.67;;
19024;SDS011;9645;51.448;6.260;2023-08-30T07:54:36;25.93;;;9.77;;
19024;SDS011;9645;51.448;6.260;2023-08-30T07:57:03;18.17;;;9.73;;
19024;SDS011;9645;51.448;6.260;2023-08-30T07:59:32;16.37;;;8.97;;
19024;SDS011;9645;51.448;6.260;2023-08-30T08:02:00;18.80;;;9.70;;
19024;SDS011;9645;51.448;6.260;2023-08-30T08:04:27;15.37;;;9.10;;
19024;SDS011;9645;51.448;6.260;2023-08-30T08:06:54;15.13;;;8.60;;
19024;SDS011;9645;51.448;6.260;2023-08-30T08:09:21;18.13;;;9.73;;
19024;SDS011;9645;51.448;6.260;2023-08-30T08:11:49;21.13;;;9.57;;
19024;SDS011;9645;51.448;6.260;2023-08-30T08:14:16;18.30;;;10.00;;
19024;SDS011;9645;51.448;6.260;2023-08-30T08:16:43;17.37;;;10.23;;
19024;SDS011;9645;51.448;6.260;2023-08-30T08:19:11;16.70;;;10.23;;
19024;SDS011;9645;51.448;6.260;2023-08-30T08:21:38;17.60;;;9.77;;
19024;SDS011;9645;51.448;6.260;2023-08-30T08:24:06;19.43;;;10.80;;
19024;SDS011;9645;51.448;6.260;2023-08-30T08:26:33;28.30;;;12.00;;
19024;SDS011;9645;51.448;6.260;2023-08-30T08:29:01;20.60;;;11.17;;
19024;SDS011;9645;51.448;6.260;2023-08-30T08:31:29;24.87;;;10.83;;
19024;SDS011;9645;51.448;6.260;2023-08-30T08:34:06;19.60;;;10.37;;
19024;SDS011;9645;51.448;6.260;2023-08-30T08:36:36;19.57;;;11.20;;
19024;SDS011;9645;51.448;6.260;2023-08-30T08:39:03;20.90;;;10.30;;
19024;SDS011;9645;51.448;6.260;2023-08-30T08:41:34;19.43;;;9.83;;
19024;SDS011;9645;51.448;6.260;2023-08-30T08:44:05;19.33;;;10.57;;
19024;SDS011;9645;51.448;6.260;2023-08-30T08:46:34;20.53;;;10.90;;
19024;SDS011;9645;51.448;6.260;2023-08-30T08:49:01;23.43;;;10.50;;
19024;SDS011;9645;51.448;6.260;2023-08-30T08:51:37;14.53;;;9.27;;
19024;SDS011;9645;51.448;6.260;2023-08-30T08:54:04;20.27;;;9.83;;
19024;SDS011;9645;51.448;6.260;2023-08-30T08:56:34;17.97;;;10.10;;
19024;SDS011;9645;51.448;6.260;2023-08-30T08:59:02;24.03;;;11.17;;
19024;SDS011;9645;51.448;6.260;2023-08-30T09:01:29;19.10;;;10.80;;
19024;SDS011;9645;51.448;6.260;2023-08-30T09:03:58;17.40;;;9.53;;
19024;SDS011;9645;51.448;6.260;2023-08-30T09:06:26;14.73;;;9.40;;
19024;SDS011;9645;51.448;6.260;2023-08-30T09:08:56;16.30;;;9.30;;
19024;SDS011;9645;51.448;6.260;2023-08-30T09:11:23;14.83;;;8.60;;
19024;SDS011;9645;51.448;6.260;2023-08-30T09:13:50;15.53;;;9.70;;
19024;SDS011;9645;51.448;6.260;2023-08-30T09:16:17;17.40;;;10.00;;
19024;SDS011;9645;51.448;6.260;2023-08-30T09:18:44;16.77;;;9.10;;
19024;SDS011;9645;51.448;6.260;2023-08-30T09:21:11;15.27;;;8.70;;
19024;SDS011;9645;51.448;6.260;2023-08-30T09:23:38;22.00;;;8.10;;
19024;SDS011;9645;51.448;6.260;2023-08-30T09:26:07;16.93;;;8.33;;
19024;SDS011;9645;51.448;6.260;2023-08-30T09:28:41;15.13;;;8.03;;
19024;SDS011;9645;51.448;6.260;2023-08-30T09:31:16;14.93;;;7.93;;
19024;SDS011;9645;51.448;6.260;2023-08-30T09:33:45;15.07;;;8.47;;
19024;SDS011;9645;51.448;6.260;2023-08-30T09:36:13;15.03;;;8.07;;
19024;SDS011;9645;51.448;6.260;2023-08-30T09:38:40;14.50;;;7.20;;
19024;SDS011;9645;51.448;6.260;2023-08-30T09:41:09;15.83;;;8.23;;
19024;SDS011;9645;51.448;6.260;2023-08-30T09:43:41;15.27;;;8.30;;
19024;SDS011;9645;51.448;6.260;2023-08-30T09:46:09;14.90;;;8.03;;
19024;SDS011;9645;51.448;6.260;2023-08-30T09:48:37;12.47;;;7.43;;
19024;SDS011;9645;51.448;6.260;2023-08-30T09:51:05;18.10;;;7.63;;
19024;SDS011;9645;51.448;6.260;2023-08-30T09:53:37;11.80;;;7.37;;
19024;SDS011;9645;51.448;6.260;2023-08-30T09:56:11;18.60;;;7.57;;
19024;SDS011;9645;51.448;6.260;2023-08-30T09:58:40;12.67;;;7.40;;
19024;SDS011;9645;51.448;6.260;2023-08-30T10:01:08;13.87;;;7.53;;
19024;SDS011;9645;51.448;6.260;2023-08-30T10:03:36;16.17;;;8.07;;
19024;SDS011;9645;51.448;6.260;2023-08-30T10:06:04;13.10;;;7.50;;
19024;SDS011;9645;51.448;6.260;2023-08-30T10:08:32;16.60;;;7.33;;
19024;SDS011;9645;51.448;6.260;2023-08-30T10:11:02;12.63;;;6.73;;
19024;SDS011;9645;51.448;6.260;2023-08-30T10:13:31;8.40;;;5.70;;
19024;SDS011;9645;51.448;6.260;2023-08-30T10:16:01;11.07;;;5.63;;
19024;SDS011;9645;51.448;6.260;2023-08-30T10:18:32;11.53;;;5.50;;
19024;SDS011;9645;51.448;6.260;2023-08-30T10:21:01;9.20;;;5.03;;
19024;SDS011;9645;51.448;6.260;2023-08-30T10:23:32;9.07;;;5.43;;
19024;SDS011;9645;51.448;6.260;2023-08-30T10:26:01;9.77;;;4.90;;
19024;SDS011;9645;51.448;6.260;2023-08-30T10:28:31;7.50;;;4.93;;
19024;SDS011;9645;51.448;6.260;2023-08-30T10:31:00;8.60;;;5.10;;
19024;SDS011;9645;51.448;6.260;2023-08-30T10:33:28;7.23;;;4.13;;
19024;SDS011;9645;51.448;6.260;2023-08-30T10:36:02;7.30;;;4.60;;
19024;SDS011;9645;51.448;6.260;2023-08-30T10:38:31;8.20;;;4.50;;
19024;SDS011;9645;51.448;6.260;2023-08-30T10:41:06;7.30;;;4.87;;
19024;SDS011;9645;51.448;6.260;2023-08-30T10:43:35;8.93;;;4.70;;
19024;SDS011;9645;51.448;6.260;2023-08-30T10:46:03;7.70;;;4.87;;
19024;SDS011;9645;51.448;6.260;2023-08-30T10:48:36;7.40;;;4.57;;
19024;SDS011;9645;51.448;6.260;2023-08-30T10:51:05;12.43;;;4.90;;
19024;SDS011;9645;51.448;6.260;2023-08-30T10:53:54;8.27;;;5.40;;
19024;SDS011;9645;51.448;6.260;2023-08-30T10:56:26;10.23;;;5.63;;
19024;SDS011;9645;51.448;6.260;2023-08-30T10:58:55;11.97;;;5.17;;
19024;SDS011;9645;51.448;6.260;2023-08-30T11:01:22;12.83;;;5.47;;
19024;SDS011;9645;51.448;6.260;2023-08-30T11:03:50;6.90;;;5.03;;
19024;SDS011;9645;51.448;6.260;2023-08-30T11:06:18;9.03;;;5.70;;
19024;SDS011;9645;51.448;6.260;2023-08-30T11:08:45;7.90;;;5.00;;
19024;SDS011;9645;51.448;6.260;2023-08-30T11:11:14;7.10;;;4.77;;
19024;SDS011;9645;51.448;6.260;2023-08-30T11:13:41;11.20;;;5.30;;
19024;SDS011;9645;51.448;6.260;2023-08-30T11:16:10;7.23;;;5.30;;
19024;SDS011;9645;51.448;6.260;2023-08-30T11:18:37;8.00;;;4.87;;
19024;SDS011;9645;51.448;6.260;2023-08-30T11:21:06;14.20;;;5.37;;
19024;SDS011;9645;51.448;6.260;2023-08-30T11:23:34;7.03;;;5.10;;
19024;SDS011;9645;51.448;6.260;2023-08-30T11:26:01;7.83;;;4.90;;
19024;SDS011;9645;51.448;6.260;2023-08-30T11:28:30;7.00;;;4.87;;
19024;SDS011;9645;51.448;6.260;2023-08-30T11:30:57;6.73;;;4.60;;
19024;SDS011;9645;51.448;6.260;2023-08-30T11:33:25;13.60;;;5.60;;
19024;SDS011;9645;51.448;6.260;2023-08-30T11:35:52;8.70;;;6.00;;
19024;SDS011;9645;51.448;6.260;2023-08-30T11:38:19;8.63;;;5.50;;
19024;SDS011;9645;51.448;6.260;2023-08-30T11:40:48;6.87;;;4.77;;
19024;SDS011;9645;51.448;6.260;2023-08-30T11:43:17;7.60;;;4.83;;
19024;SDS011;9645;51.448;6.260;2023-08-30T11:45:44;9.20;;;5.20;;
19024;SDS011;9645;51.448;6.260;2023-08-30T11:48:11;8.03;;;4.57;;
19024;SDS011;9645;51.448;6.260;2023-08-30T11:50:40;7.20;;;4.40;;
19024;SDS011;9645;51.448;6.260;2023-08-30T11:53:08;8.87;;;5.40;;
19024;SDS011;9645;51.448;6.260;2023-08-30T11:55:36;7.03;;;5.00;;
19024;SDS011;9645;51.448;6.260;2023-08-30T11:58:03;6.93;;;5.37;;
19024;SDS011;9645;51.448;6.260;2023-08-30T12:00:32;6.47;;;4.80;;
19024;SDS011;9645;51.448;6.260;2023-08-30T12:03:00;7.07;;;4.30;;
19024;SDS011;9645;51.448;6.260;2023-08-30T12:05:27;6.80;;;4.80;;
19024;SDS011;9645;51.448;6.260;2023-08-30T12:08:00;6.70;;;5.03;;
19024;SDS011;9645;51.448;6.260;2023-08-30T12:10:28;7.97;;;5.30;;
19024;SDS011;9645;51.448;6.260;2023-08-30T12:12:57;9.80;;;5.30;;
19024;SDS011;9645;51.448;6.260;2023-08-30T12:15:24;7.63;;;5.00;;
19024;SDS011;9645;51.448;6.260;2023-08-30T12:17:53;14.00;;;5.47;;
19024;SDS011;9645;51.448;6.260;2023-08-30T12:20:20;6.93;;;4.10;;
19024;SDS011;9645;51.448;6.260;2023-08-30T12:22:48;6.57;;;5.00;;
19024;SDS011;9645;51.448;6.260;2023-08-30T12:25:18;10.13;;;5.00;;
19024;SDS011;9645;51.448;6.260;2023-08-30T12:27:46;6.30;;;4.67;;
19024;SDS011;9645;51.448;6.260;2023-08-30T12:30:13;6.83;;;4.20;;
19024;SDS011;9645;51.448;6.260;2023-08-30T12:32:42;5.63;;;4.30;;
19024;SDS011;9645;51.448;6.260;2023-08-30T12:35:10;5.57;;;3.67;;
19024;SDS011;9645;51.448;6.260;2023-08-30T12:37:37;7.87;;;4.70;;
19024;SDS011;9645;51.448;6.260;2023-08-30T12:40:04;5.63;;;4.07;;
19024;SDS011;9645;51.448;6.260;2023-08-30T12:42:33;6.33;;;3.87;;
19024;SDS011;9645;51.448;6.260;2023-08-30T12:45:00;6.30;;;4.23;;
19024;SDS011;9645;51.448;6.260;2023-08-30T12:47:28;6.60;;;4.70;;
19024;SDS011;9645;51.448;6.260;2023-08-30T12:49:56;7.10;;;4.50;;
19024;SDS011;9645;51.448;6.260;2023-08-30T12:52:23;6.03;;;4.10;;
19024;SDS011;9645;51.448;6.260;2023-08-30T12:54:50;7.43;;;5.27;;
19024;SDS011;9645;51.448;6.260;2023-08-30T12:57:19;6.17;;;4.30;;
19024;SDS011;9645;51.448;6.260;2023-08-30T12:59:47;6.87;;;4.40;;
19024;SDS011;9645;51.448;6.260;2023-08-30T13:02:14;11.23;;;5.10;;
19024;SDS011;9645;51.448;6.260;2023-08-30T13:04:42;6.77;;;4.27;;
19024;SDS011;9645;51.448;6.260;2023-08-30T13:07:09;5.80;;;4.17;;
19024;SDS011;9645;51.448;6.260;2023-08-30T13:09:36;7.80;;;4.93;;
19024;SDS011;9645;51.448;6.260;2023-08-30T13:12:04;7.00;;;4.93;;
19024;SDS011;9645;51.448;6.260;2023-08-30T13:14:31;6.97;;;4.30;;
19024;SDS011;9645;51.448;6.260;2023-08-30T13:17:00;6.60;;;4.40;;
19024;SDS011;9645;51.448;6.260;2023-08-30T13:19:27;8.87;;;4.90;;
19024;SDS011;9645;51.448;6.260;2023-08-30T13:21:55;6.73;;;4.50;;
19024;SDS011;9645;51.448;6.260;2023-08-30T13:24:22;7.57;;;5.20;;
19024;SDS011;9645;51.448;6.260;2023-08-30T13:26:49;7.40;;;5.10;;
19024;SDS011;9645;51.448;6.260;2023-08-30T13:29:17;12.23;;;5.30;;
19024;SDS011;9645;51.448;6.260;2023-08-30T13:31:43;8.30;;;5.20;;
19024;SDS011;9645;51.448;6.260;2023-08-30T13:34:12;7.53;;;5.60;;
19024;SDS011;9645;51.448;6.260;2023-08-30T13:36:39;10.77;;;5.63;;
19024;SDS011;9645;51.448;6.260;2023-08-30T13:39:06;8.47;;;5.60;;
19024;SDS011;9645;51.448;6.260;2023-08-30T13:41:33;8.27;;;6.07;;
19024;SDS011;9645;51.448;6.260;2023-08-30T13:44:01;11.40;;;5.30;;
19024;SDS011;9645;51.448;6.260;2023-08-30T13:46:28;9.47;;;6.10;;
19024;SDS011;9645;51.448;6.260;2023-08-30T13:48:56;8.70;;;6.30;;
19024;SDS011;9645;51.448;6.260;2023-08-30T13:51:24;7.77;;;5.40;;
19024;SDS011;9645;51.448;6.260;2023-08-30T13:53:52;9.23;;;5.17;;
19024;SDS011;9645;51.448;6.260;2023-08-30T13:56:19;10.00;;;6.40;;
19024;SDS011;9645;51.448;6.260;2023-08-30T13:58:46;10.30;;;6.47;;
19024;SDS011;9645;51.448;6.260;2023-08-30T14:01:13;8.47;;;5.40;;
19024;SDS011;9645;51.448;6.260;2023-08-30T14:03:41;10.10;;;5.77;;
19024;SDS011;9645;51.448;6.260;2023-08-30T14:06:08;11.60;;;5.77;;
19024;SDS011;9645;51.448;6.260;2023-08-30T14:08:37;12.07;;;6.47;;
19024;SDS011;9645;51.448;6.260;2023-08-30T14:11:04;8.83;;;5.53;;
19024;SDS011;9645;51.448;6.260;2023-08-30T14:13:31;8.53;;;5.87;;
19024;SDS011;9645;51.448;6.260;2023-08-30T14:15:58;7.80;;;5.57;;
19024;SDS011;9645;51.448;6.260;2023-08-30T14:18:25;8.53;;;5.23;;
19024;SDS011;9645;51.448;6.260;2023-08-30T14:20:55;9.50;;;6.40;;
19024;SDS011;9645;51.448;6.260;2023-08-30T14:23:22;11.80;;;6.30;;
19024;SDS011;9645;51.448;6.260;2023-08-30T14:25:57;11.10;;;6.37;;
19024;SDS011;9645;51.448;6.260;2023-08-30T14:28:26;9.97;;;5.70;;
19024;SDS011;9645;51.448;6.260;2023-08-30T14:30:53;10.33;;;5.40;;
19024;SDS011;9645;51.448;6.260;2023-08-30T14:33:21;9.77;;;6.17;;
19024;SDS011;9645;51.448;6.260;2023-08-30T14:35:47;11.70;;;7.20;;
19024;SDS011;9645;51.448;6.260;2023-08-30T14:38:15;13.70;;;7.93;;
19024;SDS011;9645;51.448;6.260;2023-08-30T14:40:42;10.10;;;6.70;;
19024;SDS011;9645;51.448;6.260;2023-08-30T14:43:10;12.23;;;6.63;;
19024;SDS011;9645;51.448;6.260;2023-08-30T14:45:37;11.30;;;6.37;;
19024;SDS011;9645;51.448;6.260;2023-08-30T14:48:05;15.67;;;6.90;;